createdAt,value
2022-12-18T00:00:23.752Z,53.39
2022-12-18T00:02:52.404Z,54.34
2022-12-18T00:05:20.739Z,46.36
2022-12-18T00:07:49.105Z,51.11
2022-12-18T00:10:17.712Z,67.26
2022-12-18T00:12:45.987Z,68.59
2022-12-18T00:15:14.580Z,58.71
2022-12-18T00:17:42.867Z,62.32
2022-12-18T00:20:11.673Z,59.28
2022-12-18T00:22:39.946Z,70.68
2022-12-18T00:25:09.081Z,69.54
2022-12-18T00:27:37.064Z,70.11
2022-12-18T00:30:06.876Z,58.33
2022-12-18T00:32:34.132Z,55.29
2022-12-18T00:35:02.903Z,62.70
2022-12-18T00:37:30.827Z,53.96
2022-12-18T00:39:59.269Z,68.21
2022-12-18T00:42:45.376Z,52.63
2022-12-18T00:45:13.313Z,67.26
2022-12-18T00:47:42.982Z,53.39
2022-12-18T00:50:12.658Z,58.52
2022-12-18T00:52:41.387Z,59.85
2022-12-18T00:55:10.535Z,78.09
2022-12-18T00:57:38.234Z,63.08
2022-12-18T01:00:10.779Z,58.52
2022-12-18T01:02:37.948Z,60.80
2022-12-18T01:05:07.737Z,65.55
2022-12-18T01:07:34.648Z,54.34
2022-12-18T01:10:03.640Z,48.83
2022-12-18T01:12:31.588Z,43.13
2022-12-18T01:14:59.940Z,43.89
2022-12-18T01:17:28.424Z,44.65
2022-12-18T01:19:56.703Z,60.61
2022-12-18T01:22:25.364Z,51.49
2022-12-18T01:24:53.558Z,51.30
2022-12-18T01:27:21.989Z,51.49
2022-12-18T01:29:50.875Z,57.38
2022-12-18T01:32:18.857Z,52.44
2022-12-18T01:34:47.424Z,61.18
2022-12-18T01:37:15.651Z,51.68
2022-12-18T01:39:44.046Z,50.73
2022-12-18T01:42:17.058Z,63.27
2022-12-18T01:45:14.741Z,57.95
2022-12-18T01:48:05.428Z,59.66
2022-12-18T01:50:41.474Z,64.60
2022-12-18T01:53:16.960Z,59.66
2022-12-18T01:55:52.816Z,56.05
2022-12-18T01:58:47.587Z,73.72
2022-12-18T02:01:18.093Z,49.97
2022-12-18T02:03:48.064Z,58.14
2022-12-18T02:06:42.168Z,58.52
2022-12-18T02:09:19.049Z,68.21
2022-12-18T02:12:07.291Z,56.62
2022-12-18T02:14:53.140Z,71.06
2022-12-18T02:17:36.089Z,60.61
2022-12-18T02:20:33.852Z,64.79
2022-12-18T02:23:42.716Z,57.57
2022-12-18T02:26:19.891Z,59.47
2022-12-18T02:29:06.054Z,70.11
2022-12-18T02:31:50.896Z,73.15
2022-12-18T02:34:23.929Z,64.60
2022-12-18T02:36:54.778Z,67.07
2022-12-18T02:39:29.625Z,58.52
2022-12-18T02:42:03.428Z,55.86
2022-12-18T02:44:33.103Z,61.94
2022-12-18T02:47:03.526Z,64.41
2022-12-18T02:49:54.717Z,62.70
2022-12-18T02:53:13.918Z,60.23
2022-12-18T02:55:57.404Z,56.05
2022-12-18T02:58:53.889Z,75.81
2022-12-18T03:01:56.631Z,84.74
2022-12-18T03:04:41.808Z,75.81
2022-12-18T03:07:22.665Z,64.22
2022-12-18T03:09:56.419Z,68.40
2022-12-18T03:12:36.273Z,71.44
2022-12-18T03:15:32.868Z,72.77
2022-12-18T03:18:46.969Z,79.80
2022-12-18T03:21:24.000Z,87.78
2022-12-18T03:23:55.740Z,80.37
2022-12-18T03:26:29.615Z,83.60
2022-12-18T03:29:09.605Z,78.47
2022-12-18T03:31:48.546Z,89.49
2022-12-18T03:34:27.882Z,93.10
2022-12-18T03:36:58.715Z,81.51
2022-12-18T03:39:28.588Z,82.08
2022-12-18T03:42:29.861Z,89.68
2022-12-18T03:45:20.994Z,91.96
2022-12-18T03:48:10.558Z,89.11
2022-12-18T03:51:02.611Z,77.90
2022-12-18T03:53:51.773Z,107.92
2022-12-18T03:56:25.774Z,88.54
2022-12-18T03:58:57.143Z,85.31
2022-12-18T04:01:37.071Z,101.84
2022-12-18T04:04:10.855Z,94.24
2022-12-18T04:06:43.430Z,97.09
2022-12-18T04:09:14.484Z,87.40
2022-12-18T04:11:45.335Z,85.31
2022-12-18T04:14:17.880Z,80.56
2022-12-18T04:16:48.421Z,71.25
2022-12-18T04:19:18.155Z,97.66
2022-12-18T04:21:47.856Z,83.60
2022-12-18T04:24:17.576Z,75.05
2022-12-18T04:26:47.363Z,81.13
2022-12-18T04:29:17.337Z,74.29
2022-12-18T04:31:47.022Z,79.23
2022-12-18T04:34:16.805Z,69.92
2022-12-18T04:36:46.726Z,71.25
2022-12-18T04:39:16.666Z,69.54
2022-12-18T04:41:46.461Z,82.08
2022-12-18T04:44:16.226Z,78.47
2022-12-18T04:46:46.649Z,90.44
2022-12-18T04:49:16.570Z,73.53
2022-12-18T04:51:46.270Z,100.13
2022-12-18T04:54:16.000Z,96.90
2022-12-18T04:56:45.812Z,91.96
2022-12-18T04:59:15.749Z,95.38
2022-12-18T05:01:46.833Z,89.11
2022-12-18T05:04:16.696Z,87.02
2022-12-18T05:06:47.759Z,99.18
2022-12-18T05:09:18.195Z,88.16
2022-12-18T05:11:47.594Z,95.76
2022-12-18T05:14:15.019Z,91.39
2022-12-18T05:16:43.552Z,115.71
2022-12-18T05:19:12.394Z,106.59
2022-12-18T05:21:40.323Z,101.08
2022-12-18T05:24:08.785Z,89.49
2022-12-18T05:26:37.235Z,94.24
2022-12-18T05:29:05.658Z,95.00
2022-12-18T05:31:39.031Z,89.30
2022-12-18T05:34:09.837Z,101.27
2022-12-18T05:36:40.069Z,108.68
2022-12-18T05:39:10.330Z,100.89
2022-12-18T05:41:39.999Z,98.61
2022-12-18T05:44:09.830Z,98.80
2022-12-18T05:46:39.628Z,96.33
2022-12-18T05:49:10.203Z,82.84
2022-12-18T05:51:40.105Z,81.89
2022-12-18T05:54:10.172Z,108.49
2022-12-18T05:56:44.123Z,91.77
2022-12-18T05:59:17.045Z,100.89
2022-12-18T06:01:47.315Z,93.29
2022-12-18T06:04:17.233Z,100.13
2022-12-18T06:06:47.025Z,80.56
2022-12-18T06:09:16.886Z,87.59
2022-12-18T06:11:46.647Z,93.29
2022-12-18T06:14:18.193Z,69.16
2022-12-18T06:16:47.929Z,95.57
2022-12-18T06:19:17.892Z,88.92
2022-12-18T06:21:48.188Z,99.18
2022-12-18T06:24:17.974Z,96.14
2022-12-18T06:26:47.690Z,114.00
2022-12-18T06:29:17.409Z,81.70
2022-12-18T06:31:47.276Z,101.27
2022-12-18T06:34:17.157Z,82.84
2022-12-18T06:36:46.983Z,79.42
2022-12-18T06:39:16.726Z,80.18
2022-12-18T06:41:43.914Z,89.68
2022-12-18T06:44:11.146Z,83.41
2022-12-18T06:46:41.441Z,88.16
2022-12-18T06:49:11.158Z,79.80
2022-12-18T06:51:41.224Z,82.84
2022-12-18T06:54:11.054Z,70.49
2022-12-18T06:56:40.835Z,83.22
2022-12-18T06:59:10.513Z,64.60
2022-12-18T07:01:40.401Z,53.96
2022-12-18T07:04:10.256Z,49.40
2022-12-18T07:06:39.982Z,59.47
2022-12-18T07:09:09.764Z,50.73
2022-12-18T07:11:39.521Z,53.01
2022-12-18T07:14:09.199Z,64.60
2022-12-18T07:16:39.151Z,55.10
2022-12-18T07:19:08.996Z,62.13
2022-12-18T07:21:37.346Z,63.27
2022-12-18T07:24:07.729Z,62.89
2022-12-18T07:26:36.767Z,65.74
2022-12-18T07:29:06.445Z,61.75
2022-12-18T07:31:36.198Z,64.98
2022-12-18T07:34:06.010Z,62.13
2022-12-18T07:36:35.719Z,49.21
2022-12-18T07:39:05.697Z,74.67
2022-12-18T07:41:35.401Z,70.30
2022-12-18T07:44:05.302Z,43.13
2022-12-18T07:46:35.057Z,60.23
2022-12-18T07:49:05.709Z,60.61
2022-12-18T07:51:35.134Z,64.03
2022-12-18T07:54:05.580Z,68.21
2022-12-18T07:56:35.089Z,52.63
2022-12-18T07:59:04.357Z,59.09
2022-12-18T08:01:35.449Z,63.84
2022-12-18T08:04:04.677Z,73.72
2022-12-18T08:06:34.415Z,64.41
2022-12-18T08:09:04.487Z,54.72
2022-12-18T08:11:34.187Z,66.31
2022-12-18T08:14:04.014Z,62.89
2022-12-18T08:16:33.823Z,60.99
2022-12-18T08:19:04.235Z,77.14
2022-12-18T08:21:33.929Z,65.74
2022-12-18T08:24:04.571Z,77.71
2022-12-18T08:26:34.047Z,69.73
2022-12-18T08:29:03.968Z,64.60
2022-12-18T08:31:34.043Z,76.76
2022-12-18T08:34:03.898Z,81.70
2022-12-18T08:36:33.754Z,78.09
2022-12-18T08:39:03.828Z,75.81
2022-12-18T08:41:34.157Z,71.25
2022-12-18T08:44:22.540Z,58.52
2022-12-18T08:46:52.355Z,48.45
2022-12-18T08:49:22.113Z,67.26
2022-12-18T08:51:58.051Z,57.00
2022-12-18T08:54:27.592Z,52.25
2022-12-18T08:56:54.671Z,72.01
2022-12-18T08:59:24.528Z,75.05
2022-12-18T09:01:55.440Z,72.77
2022-12-18T09:04:25.305Z,68.97
2022-12-18T09:06:55.004Z,60.04
2022-12-18T09:09:24.779Z,52.25
2022-12-18T09:11:54.555Z,60.04
2022-12-18T09:14:24.288Z,66.69
2022-12-18T09:16:54.147Z,56.24
2022-12-18T09:19:23.874Z,56.24
2022-12-18T09:21:53.758Z,61.18
2022-12-18T09:24:23.537Z,57.57
2022-12-18T09:26:58.082Z,63.27
2022-12-18T09:29:27.868Z,56.62
2022-12-18T09:31:56.324Z,53.77
2022-12-18T09:34:25.008Z,48.64
2022-12-18T09:36:53.239Z,57.76
2022-12-18T09:39:22.909Z,50.73
2022-12-18T09:42:00.442Z,44.65
2022-12-18T09:44:44.468Z,51.87
2022-12-18T09:47:25.023Z,59.85
2022-12-18T09:50:02.084Z,49.59
2022-12-18T09:52:41.406Z,41.23
2022-12-18T09:55:37.196Z,52.44
2022-12-18T09:58:20.683Z,52.06
2022-12-18T10:00:54.289Z,46.36
2022-12-18T10:03:24.493Z,46.36
2022-12-18T10:06:16.230Z,50.35
2022-12-18T10:09:15.083Z,51.68
2022-12-18T10:12:02.703Z,56.62
2022-12-18T10:15:20.565Z,47.31
2022-12-18T10:18:25.107Z,50.54
2022-12-18T10:21:38.198Z,64.03
2022-12-18T10:24:14.388Z,62.13
2022-12-18T10:26:45.899Z,63.65
2022-12-18T10:29:17.701Z,37.24
2022-12-18T10:31:47.401Z,59.85
2022-12-18T10:34:17.124Z,53.77
2022-12-18T10:36:49.039Z,40.28
2022-12-18T10:39:27.171Z,47.88
2022-12-18T10:42:21.301Z,61.37
2022-12-18T10:45:09.575Z,60.61
2022-12-18T10:47:45.906Z,63.08
2022-12-18T10:51:09.839Z,55.29
2022-12-18T10:53:33.883Z,62.51
2022-12-18T10:56:06.946Z,54.72
2022-12-18T10:58:39.991Z,66.69
2022-12-18T11:01:22.873Z,50.54
2022-12-18T11:04:01.615Z,62.13
2022-12-18T11:06:32.098Z,49.97
2022-12-18T11:09:12.241Z,60.23
2022-12-18T11:11:53.239Z,64.98
2022-12-18T11:14:33.897Z,67.07
2022-12-18T11:17:25.031Z,50.35
2022-12-18T11:20:02.811Z,64.22
2022-12-18T11:22:37.327Z,61.75
2022-12-18T11:25:36.451Z,56.62
2022-12-18T11:28:42.046Z,31.92
2022-12-18T11:31:25.942Z,62.89
2022-12-18T11:34:29.440Z,53.39
2022-12-18T11:37:03.842Z,60.04
2022-12-18T11:40:02.312Z,52.82
2022-12-18T11:42:57.108Z,76.00
2022-12-18T11:45:35.727Z,51.87
2022-12-18T11:48:31.062Z,57.76
2022-12-18T11:51:06.730Z,51.68
2022-12-18T11:53:39.099Z,53.01
2022-12-18T11:56:18.491Z,55.48
2022-12-18T11:59:06.584Z,53.77
2022-12-18T12:01:52.258Z,60.23
2022-12-18T12:04:57.926Z,55.67
2022-12-18T12:07:30.609Z,59.09
2022-12-18T12:10:28.459Z,51.87
2022-12-18T12:13:58.066Z,60.04
2022-12-18T12:17:01.085Z,47.50
2022-12-18T12:20:02.253Z,50.73
2022-12-18T12:30:44.555Z,63.46
2022-12-18T12:33:55.184Z,43.13
2022-12-18T12:36:54.094Z,48.83
2022-12-18T12:39:33.983Z,47.12
2022-12-18T12:42:43.693Z,42.94
2022-12-18T12:45:32.333Z,47.31
2022-12-18T12:48:08.115Z,41.23
2022-12-18T12:50:40.435Z,39.14
2022-12-18T12:53:26.349Z,44.08
2022-12-18T12:55:58.119Z,40.47
2022-12-18T12:58:40.536Z,41.42
2022-12-18T13:01:42.536Z,48.45
2022-12-18T13:04:58.366Z,46.17
2022-12-18T13:07:39.387Z,43.51
2022-12-18T13:10:20.630Z,41.04
2022-12-18T13:13:04.310Z,39.52
2022-12-18T13:15:46.271Z,37.24
2022-12-18T13:18:22.085Z,43.32
2022-12-18T13:20:59.894Z,42.18
2022-12-18T13:23:40.819Z,46.74
2022-12-18T13:26:28.001Z,47.88
2022-12-18T13:29:02.909Z,48.83
2022-12-18T13:31:42.880Z,41.42
2022-12-18T13:34:26.726Z,47.69
2022-12-18T13:37:33.690Z,44.08
2022-12-18T13:40:42.846Z,41.42
2022-12-18T13:43:18.812Z,54.91
2022-12-18T13:46:02.004Z,48.64
2022-12-18T13:48:39.252Z,56.62
2022-12-18T13:51:18.692Z,54.91
2022-12-18T13:53:52.219Z,48.83
2022-12-18T13:56:35.197Z,69.73
2022-12-18T13:59:24.273Z,61.75
2022-12-18T14:01:59.073Z,69.73
2022-12-18T14:04:33.048Z,58.71
2022-12-18T14:07:19.256Z,88.54
2022-12-18T14:10:01.896Z,73.91
2022-12-18T14:12:56.140Z,68.40
2022-12-18T14:15:43.621Z,71.82
2022-12-18T14:18:19.041Z,70.68
2022-12-18T14:20:53.455Z,83.22
2022-12-18T14:23:41.848Z,77.71
2022-12-18T14:26:25.094Z,85.31
2022-12-18T14:29:02.098Z,81.32
2022-12-18T14:31:32.942Z,77.90
2022-12-18T14:34:00.254Z,65.74
2022-12-18T14:36:30.626Z,81.32
2022-12-18T14:39:00.599Z,79.61
2022-12-18T14:41:29.757Z,67.45
2022-12-18T14:44:08.946Z,66.31
2022-12-18T14:46:47.174Z,60.04
2022-12-18T14:49:32.275Z,49.02
2022-12-18T14:52:36.447Z,60.99
2022-12-18T14:55:15.063Z,42.75
2022-12-18T14:57:46.086Z,57.19
2022-12-18T15:00:21.609Z,54.53
2022-12-18T15:02:57.635Z,40.85
2022-12-18T15:05:32.624Z,37.62
2022-12-18T15:08:03.692Z,40.66
2022-12-18T15:10:35.481Z,46.55
2022-12-18T15:13:04.298Z,49.97
2022-12-18T15:15:34.055Z,46.74
2022-12-18T15:18:05.283Z,55.10
2022-12-18T15:20:56.130Z,46.74
2022-12-18T15:23:50.979Z,59.47
2022-12-18T15:26:23.421Z,50.35
2022-12-18T15:28:56.980Z,51.68
2022-12-18T15:31:35.793Z,50.54
2022-12-18T15:34:21.594Z,46.36
2022-12-18T15:36:52.485Z,47.69
2022-12-18T15:39:22.668Z,49.97
2022-12-18T15:42:13.161Z,53.96
2022-12-18T15:44:44.713Z,55.86
2022-12-18T15:47:14.353Z,54.53
2022-12-18T15:49:44.026Z,59.47
2022-12-18T15:52:15.051Z,58.71
2022-12-18T15:55:03.666Z,40.66
2022-12-18T15:57:33.862Z,43.70
2022-12-18T16:00:04.916Z,43.13
2022-12-18T16:02:34.786Z,41.61
2022-12-18T16:05:17.881Z,36.86
2022-12-18T16:07:48.590Z,37.81
2022-12-18T16:10:18.674Z,42.94
2022-12-18T16:12:48.909Z,42.75
2022-12-18T16:15:22.483Z,36.86
2022-12-18T16:17:54.329Z,47.31
2022-12-18T16:20:24.297Z,48.45
2022-12-18T16:22:54.397Z,39.90
2022-12-18T16:25:28.194Z,45.03
2022-12-18T16:27:58.543Z,41.99
2022-12-18T16:30:32.364Z,35.91
2022-12-18T16:33:11.915Z,44.08
2022-12-18T16:35:41.764Z,49.59
2022-12-18T16:38:12.527Z,36.67
2022-12-18T16:41:02.300Z,36.10
2022-12-18T16:43:32.071Z,38.76
2022-12-18T16:46:02.036Z,38.19
2022-12-18T16:48:31.846Z,48.64
2022-12-18T16:51:05.327Z,45.22
2022-12-18T16:53:35.040Z,47.12
2022-12-18T16:56:05.216Z,35.53
2022-12-18T16:58:36.502Z,41.04
2022-12-18T17:01:12.114Z,42.75
2022-12-18T17:03:42.464Z,38.76
2022-12-18T17:06:14.191Z,42.18
2022-12-18T17:08:43.935Z,41.42
2022-12-18T17:11:12.420Z,39.14
2022-12-18T17:13:41.281Z,37.05
2022-12-18T17:16:10.165Z,36.67
2022-12-18T17:18:38.274Z,43.70
2022-12-18T17:21:09.401Z,41.42
2022-12-18T17:23:38.083Z,43.89
2022-12-18T17:26:07.308Z,47.12
2022-12-18T17:28:34.880Z,33.44
2022-12-18T17:31:11.618Z,47.12
2022-12-18T17:33:41.917Z,45.98
2022-12-18T17:36:12.784Z,49.21
2022-12-18T17:38:43.632Z,52.25
2022-12-18T17:41:13.341Z,56.62
2022-12-18T17:43:45.854Z,41.04
2022-12-18T17:46:15.307Z,49.97
2022-12-18T17:48:43.072Z,49.78
2022-12-18T17:51:12.284Z,43.89
2022-12-18T17:53:40.440Z,38.00
2022-12-18T17:56:13.299Z,52.82
2022-12-18T17:58:44.231Z,44.65
2022-12-18T18:01:17.600Z,51.30
2022-12-18T18:03:50.949Z,50.16
2022-12-18T18:06:24.398Z,41.04
2022-12-18T18:08:54.771Z,55.29
2022-12-18T18:11:44.051Z,44.46
2022-12-18T18:14:20.253Z,44.84
2022-12-18T18:16:52.494Z,50.54
2022-12-18T18:19:24.848Z,44.27
2022-12-18T18:21:54.702Z,49.97
2022-12-18T18:24:25.722Z,53.01
2022-12-18T18:26:55.524Z,51.68
2022-12-18T18:29:27.923Z,48.26
2022-12-18T18:31:59.537Z,51.11
2022-12-18T18:34:32.655Z,64.41
2022-12-18T18:37:03.180Z,41.61
2022-12-18T18:39:33.335Z,54.15
2022-12-18T18:42:03.519Z,46.36
2022-12-18T18:44:33.489Z,54.53
2022-12-18T18:47:04.235Z,53.39
2022-12-18T18:49:36.473Z,65.17
2022-12-18T18:52:03.676Z,63.08
2022-12-18T18:54:33.801Z,36.67
2022-12-18T18:57:20.465Z,56.05
2022-12-18T18:59:50.696Z,60.42
2022-12-18T19:02:20.549Z,52.06
2022-12-18T19:04:50.475Z,55.29
2022-12-18T19:07:30.689Z,62.32
2022-12-18T19:10:04.081Z,61.56
2022-12-18T19:12:54.110Z,56.81
2022-12-18T19:15:21.884Z,60.80
2022-12-18T19:17:49.881Z,53.58
2022-12-18T19:20:18.500Z,60.80
2022-12-18T19:22:54.657Z,49.78
2022-12-18T19:25:38.502Z,36.29
2022-12-18T19:28:18.148Z,67.64
2022-12-18T19:30:58.726Z,59.28
2022-12-18T19:33:48.190Z,58.71
2022-12-18T19:36:25.546Z,63.27
2022-12-18T19:38:57.816Z,53.77
2022-12-18T19:41:31.345Z,53.96
2022-12-18T19:44:08.311Z,52.82
2022-12-18T19:46:41.627Z,55.67
2022-12-18T19:49:17.466Z,70.49
2022-12-18T19:51:47.674Z,55.10
2022-12-18T19:54:20.023Z,51.49
2022-12-18T19:56:50.041Z,64.98
2022-12-18T19:59:19.866Z,66.69
2022-12-18T20:01:50.507Z,57.95
2022-12-18T20:04:20.529Z,51.68
2022-12-18T20:06:53.293Z,62.13
2022-12-18T20:09:21.288Z,83.41
2022-12-18T20:11:48.960Z,62.89
2022-12-18T20:14:22.662Z,68.40
2022-12-18T20:16:53.292Z,55.48
2022-12-18T20:19:24.755Z,49.02
2022-12-18T20:21:53.857Z,47.12
2022-12-18T20:24:23.558Z,64.22
2022-12-18T20:26:54.200Z,68.02
2022-12-18T20:29:23.952Z,64.60
2022-12-18T20:31:54.239Z,59.47
2022-12-18T20:34:24.140Z,60.23
2022-12-18T20:36:53.890Z,57.76
2022-12-18T20:39:26.304Z,51.68
2022-12-18T20:41:56.156Z,61.18
2022-12-18T20:44:24.490Z,39.33
2022-12-18T20:46:59.121Z,64.22
2022-12-18T20:49:27.525Z,67.26
2022-12-18T20:51:57.748Z,74.67
2022-12-18T20:54:27.856Z,59.66
2022-12-18T20:56:58.224Z,68.59
2022-12-18T20:59:28.029Z,51.30
2022-12-18T21:01:58.065Z,57.57
2022-12-18T21:04:28.376Z,64.60
2022-12-18T21:07:02.350Z,61.18
2022-12-18T21:09:37.768Z,57.00
2022-12-18T21:12:34.990Z,72.01
2022-12-18T21:15:10.969Z,63.27
2022-12-18T21:17:45.099Z,68.40
2022-12-18T21:20:17.807Z,70.30
2022-12-18T21:22:49.287Z,67.45
2022-12-18T21:25:19.095Z,59.28
2022-12-18T21:27:48.826Z,48.64
2022-12-18T21:30:18.823Z,38.76
2022-12-18T21:32:48.847Z,68.02
2022-12-18T21:35:18.709Z,60.99
2022-12-18T21:37:50.300Z,56.62
2022-12-18T21:40:20.077Z,54.53
2022-12-18T21:43:09.060Z,66.12
2022-12-18T21:45:38.578Z,66.31
2022-12-18T21:48:08.340Z,57.00
2022-12-18T21:50:38.151Z,62.51
2022-12-18T21:53:08.496Z,75.81
2022-12-18T21:55:38.062Z,67.26
2022-12-18T21:58:06.514Z,63.08
2022-12-18T22:00:34.933Z,57.57
2022-12-18T22:03:18.821Z,66.31
2022-12-18T22:05:51.444Z,62.32
2022-12-18T22:08:36.142Z,62.51
2022-12-18T22:11:12.695Z,60.61
2022-12-18T22:13:42.022Z,61.94
2022-12-18T22:16:10.395Z,65.55
2022-12-18T22:18:38.845Z,51.49
2022-12-18T22:21:07.278Z,47.12
2022-12-18T22:23:35.733Z,47.31
2022-12-18T22:26:04.148Z,66.88
2022-12-18T22:28:51.240Z,65.93
2022-12-18T22:31:20.997Z,62.89
2022-12-18T22:33:51.228Z,64.03
2022-12-18T22:36:20.894Z,65.74
2022-12-18T22:38:52.491Z,56.43
2022-12-18T22:41:23.313Z,55.86
2022-12-18T22:43:53.067Z,58.90
2022-12-18T22:46:26.669Z,55.10
2022-12-18T22:48:56.369Z,51.11
2022-12-18T22:51:26.275Z,57.95
2022-12-18T22:53:55.995Z,64.03
2022-12-18T22:56:25.874Z,64.60
2022-12-18T22:58:55.624Z,52.25
2022-12-18T23:01:29.452Z,54.72
2022-12-18T23:03:59.980Z,57.95
2022-12-18T23:06:29.743Z,52.44
2022-12-18T23:08:59.510Z,54.15
2022-12-18T23:11:29.308Z,52.25
2022-12-18T23:13:59.373Z,50.54
2022-12-18T23:16:29.372Z,55.10
2022-12-18T23:18:59.307Z,40.85
2022-12-18T23:21:29.211Z,64.79
2022-12-18T23:23:59.917Z,58.71
2022-12-18T23:26:29.780Z,58.14
2022-12-18T23:29:02.993Z,55.29
2022-12-18T23:31:38.761Z,56.05
2022-12-18T23:34:12.654Z,58.71
2022-12-18T23:36:46.339Z,56.05
2022-12-18T23:39:28.800Z,32.87
2022-12-18T23:41:58.781Z,48.64
2022-12-18T23:44:26.258Z,47.12
2022-12-18T23:46:54.993Z,44.84
2022-12-18T23:49:22.905Z,43.13
2022-12-18T23:51:55.048Z,57.19
2022-12-18T23:54:33.529Z,61.75
2022-12-18T23:57:04.235Z,59.09
2022-12-18T23:59:33.947Z,49.21
